createdAt,value
2022-11-22T00:00:48.217Z,4.07
2022-11-22T00:06:14.738Z,4.55
2022-11-22T00:11:44.410Z,5.32
2022-11-22T00:17:13.512Z,4.32
2022-11-22T00:22:44.895Z,4.77
2022-11-22T00:28:14.021Z,5.00
2022-11-22T00:33:43.303Z,5.05
2022-11-22T00:39:13.719Z,4.22
2022-11-22T00:44:37.563Z,4.53
2022-11-22T00:50:01.877Z,4.85
2022-11-22T00:55:26.905Z,4.80
2022-11-22T01:00:56.952Z,4.43
2022-11-22T01:06:32.169Z,4.63
2022-11-22T01:11:56.989Z,4.15
2022-11-22T01:17:26.221Z,5.40
2022-11-22T01:22:52.035Z,4.82
2022-11-22T01:28:22.572Z,4.43
2022-11-22T01:33:46.045Z,3.90
2022-11-22T01:39:13.379Z,4.38
2022-11-22T01:44:44.773Z,4.40
2022-11-22T01:50:17.992Z,4.70
2022-11-22T01:55:49.075Z,4.00
2022-11-22T02:01:20.041Z,3.92
2022-11-22T02:06:55.069Z,4.68
2022-11-22T02:12:28.457Z,3.97
2022-11-22T02:17:59.321Z,4.53
2022-11-22T02:23:37.529Z,3.97
2022-11-22T02:29:08.994Z,4.65
2022-11-22T02:34:45.441Z,5.35
2022-11-22T02:40:16.922Z,4.22
2022-11-22T02:45:47.782Z,4.00
2022-11-22T02:51:19.863Z,4.05
2022-11-22T02:56:49.436Z,3.60
2022-11-22T03:02:19.744Z,3.22
2022-11-22T03:07:49.251Z,3.08
2022-11-22T03:13:18.176Z,2.67
2022-11-22T03:18:48.659Z,3.13
2022-11-22T03:24:17.504Z,4.20
2022-11-22T03:29:46.473Z,4.07
2022-11-22T03:35:16.470Z,6.13
2022-11-22T03:40:47.405Z,6.45
2022-11-22T03:46:17.129Z,6.00
2022-11-22T03:51:47.479Z,6.25
2022-11-22T03:57:17.027Z,5.93
2022-11-22T04:02:46.172Z,5.88
2022-11-22T04:08:16.615Z,6.47
2022-11-22T04:14:02.534Z,7.35
2022-11-22T04:19:31.494Z,6.50
2022-11-22T04:25:16.679Z,6.47
2022-11-22T04:41:45.803Z,4.72
2022-11-22T04:47:09.112Z,5.47
2022-11-22T04:52:50.060Z,5.28
2022-11-22T04:58:21.111Z,5.50
2022-11-22T05:03:44.868Z,6.25
2022-11-22T05:09:08.794Z,6.15
2022-11-22T05:14:35.329Z,7.00
2022-11-22T05:20:05.539Z,6.57
2022-11-22T05:25:29.911Z,8.05
2022-11-22T05:36:25.039Z,7.65
2022-11-22T05:41:56.847Z,6.60
2022-11-22T05:47:23.768Z,5.85
2022-11-22T05:52:52.331Z,4.88
2022-11-22T05:58:16.268Z,10.25
2022-11-22T06:03:41.591Z,5.75
2022-11-22T06:09:10.357Z,5.53
2022-11-22T06:14:39.950Z,4.93
2022-11-22T06:20:14.338Z,4.25
2022-11-22T06:25:43.329Z,5.03
2022-11-22T06:31:15.311Z,5.70
2022-11-22T06:36:53.382Z,4.40
2022-11-22T06:42:22.521Z,3.95
2022-11-22T06:47:53.862Z,5.65
2022-11-22T06:59:16.496Z,6.35
2022-11-22T07:05:25.111Z,6.10
2022-11-22T07:11:04.949Z,7.22
2022-11-22T07:16:34.166Z,4.35
2022-11-22T07:22:00.336Z,5.07
2022-11-22T07:27:25.279Z,6.25
2022-11-22T07:32:49.051Z,7.93
2022-11-22T07:38:16.923Z,8.02
2022-11-22T07:43:47.953Z,6.72
2022-11-22T07:49:17.377Z,7.85
2022-11-22T07:54:41.945Z,9.50
2022-11-22T08:05:43.439Z,9.13
2022-11-22T08:11:16.056Z,8.48
2022-11-22T08:17:06.416Z,9.57
2022-11-22T08:22:43.020Z,7.28
2022-11-22T08:28:21.692Z,8.48
2022-11-22T08:33:50.093Z,10.20
2022-11-22T08:39:27.176Z,10.57
2022-11-22T08:44:57.301Z,14.38
2022-11-22T08:50:30.256Z,12.00
2022-11-22T08:56:00.751Z,14.93
2022-11-22T09:01:29.334Z,9.32
2022-11-22T09:12:37.617Z,15.68
2022-11-22T09:18:06.442Z,8.67
2022-11-22T09:23:35.599Z,8.20
2022-11-22T09:29:04.243Z,10.18
2022-11-22T09:34:33.063Z,10.17
2022-11-22T09:39:59.370Z,8.93
2022-11-22T09:45:46.970Z,10.63
2022-11-22T09:51:20.701Z,9.40
2022-11-22T09:56:48.459Z,10.90
2022-11-22T10:02:24.371Z,12.15
2022-11-22T10:08:00.957Z,15.55
2022-11-22T10:13:31.508Z,16.30
2022-11-22T10:19:02.178Z,16.95
2022-11-22T10:24:25.626Z,14.50
2022-11-22T10:30:01.267Z,13.70
2022-11-22T10:41:10.537Z,10.40
2022-11-22T10:46:45.217Z,11.18
2022-11-22T10:52:20.124Z,9.13
2022-11-22T10:57:53.115Z,8.93
2022-11-22T11:03:28.676Z,8.43
2022-11-22T11:10:02.991Z,9.93
2022-11-22T11:14:48.047Z,9.80
2022-11-22T11:20:26.315Z,8.20
2022-11-22T11:25:55.569Z,8.98
2022-11-22T11:31:21.755Z,7.95
2022-11-22T11:36:47.839Z,9.50
2022-11-22T11:42:26.947Z,7.60
2022-11-22T11:47:50.247Z,8.27
2022-11-22T11:53:23.925Z,8.40
2022-11-22T11:58:54.290Z,7.25
2022-11-22T12:04:22.810Z,6.75
2022-11-22T12:09:58.162Z,5.75
2022-11-22T12:15:26.046Z,7.43
2022-11-22T12:21:03.574Z,8.80
2022-11-22T12:26:33.537Z,5.80
2022-11-22T12:32:07.535Z,6.25
2022-11-22T12:37:40.040Z,6.97
2022-11-22T12:43:13.008Z,6.90
2022-11-22T12:48:49.239Z,6.80
2022-11-22T12:54:19.693Z,6.15
2022-11-22T12:59:52.401Z,6.30
2022-11-22T13:05:24.848Z,6.82
2022-11-22T13:10:52.937Z,9.23
2022-11-22T13:16:17.107Z,8.23
2022-11-22T13:22:03.941Z,6.65
2022-11-22T13:27:36.852Z,6.30
2022-11-22T13:33:02.480Z,4.82
2022-11-22T13:38:27.487Z,7.13
2022-11-22T13:43:57.137Z,6.90
2022-11-22T13:49:37.425Z,7.63
2022-11-22T13:55:29.090Z,6.72
2022-11-22T14:00:53.957Z,4.90
2022-11-22T14:06:29.055Z,6.25
2022-11-22T14:12:05.762Z,6.95
2022-11-22T14:17:42.395Z,5.68
2022-11-22T14:23:22.973Z,7.13
2022-11-22T14:29:20.345Z,6.30
2022-11-22T14:35:26.329Z,5.78
2022-11-22T14:41:43.056Z,7.32
2022-11-22T14:47:14.809Z,8.38
2022-11-22T14:52:45.347Z,10.20
2022-11-22T14:58:20.927Z,10.43
2022-11-22T15:09:11.059Z,6.78
2022-11-22T15:10:07.709Z,7.45
2022-11-22T16:02:49.956Z,10.40
2022-11-22T16:08:20.434Z,15.13
2022-11-22T16:13:49.701Z,15.15
2022-11-22T16:19:33.552Z,13.68
2022-11-22T16:25:30.975Z,13.35
2022-11-22T16:31:03.360Z,13.70
2022-11-22T16:36:31.458Z,13.73
2022-11-22T16:47:26.860Z,12.77
2022-11-22T16:53:02.516Z,14.50
2022-11-22T16:58:47.466Z,13.18
2022-11-22T17:04:23.304Z,11.35
2022-11-22T17:15:44.666Z,14.85
2022-11-22T17:21:17.393Z,15.75
2022-11-22T17:26:46.206Z,14.77
2022-11-22T17:32:25.889Z,17.02
2022-11-22T17:37:55.443Z,15.48
2022-11-22T17:43:24.660Z,17.00
2022-11-22T17:48:54.632Z,16.38
2022-11-22T17:54:20.523Z,16.50
2022-11-22T17:59:49.383Z,16.23
2022-11-22T18:05:14.578Z,15.85
2022-11-22T18:10:39.795Z,16.90
2022-11-22T18:16:07.920Z,14.93
2022-11-22T18:21:34.014Z,11.60
2022-11-22T18:27:05.338Z,11.73
2022-11-22T18:32:27.780Z,11.38
2022-11-22T18:37:57.535Z,11.98
2022-11-22T18:43:23.979Z,10.82
2022-11-22T18:48:52.492Z,11.18
2022-11-22T18:54:18.559Z,12.05
2022-11-22T18:59:47.711Z,10.73
2022-11-22T19:05:19.866Z,11.23
2022-11-22T19:10:58.026Z,10.05
2022-11-22T19:16:22.478Z,10.88
2022-11-22T19:21:47.881Z,11.70
2022-11-22T19:27:14.345Z,10.95
2022-11-22T19:32:45.171Z,9.75
2022-11-22T19:38:10.411Z,10.60
2022-11-22T19:43:36.415Z,10.02
2022-11-22T19:49:07.049Z,10.90
2022-11-22T19:54:36.450Z,10.13
2022-11-22T20:00:01.273Z,11.02
2022-11-22T20:05:24.519Z,10.18
2022-11-22T20:10:48.414Z,11.25
2022-11-22T20:16:18.071Z,12.00
2022-11-22T20:21:44.886Z,11.07
2022-11-22T20:27:13.975Z,12.50
2022-11-22T20:32:45.331Z,9.90
2022-11-22T20:38:15.570Z,10.60
2022-11-22T20:43:41.512Z,10.77
2022-11-22T20:49:06.264Z,11.20
2022-11-22T20:54:35.587Z,11.60
2022-11-22T21:00:05.003Z,11.33
2022-11-22T21:05:35.249Z,12.70
2022-11-22T21:11:06.574Z,12.32
2022-11-22T21:16:31.428Z,14.98
2022-11-22T21:22:02.627Z,14.55
2022-11-22T21:27:30.926Z,14.27
2022-11-22T21:32:59.732Z,15.27
2022-11-22T21:38:31.518Z,14.93
2022-11-22T21:43:56.863Z,16.67
2022-11-22T21:49:27.822Z,17.00
2022-11-22T21:54:54.398Z,16.33
2022-11-22T22:00:18.823Z,13.75
2022-11-22T22:05:49.529Z,13.55
2022-11-22T22:11:20.005Z,12.85
2022-11-22T22:16:48.602Z,14.10
2022-11-22T22:22:13.873Z,11.60
2022-11-22T22:27:42.106Z,8.82
2022-11-22T22:33:05.470Z,12.10
2022-11-22T22:38:30.765Z,9.35
2022-11-22T22:43:55.929Z,10.15
2022-11-22T22:49:18.809Z,11.82
2022-11-22T22:54:42.651Z,9.52
2022-11-22T23:00:09.156Z,8.90
2022-11-22T23:05:32.481Z,11.48
2022-11-22T23:11:02.589Z,10.25
2022-11-22T23:16:28.514Z,9.30
2022-11-22T23:21:57.725Z,10.57
2022-11-22T23:27:26.728Z,11.93
2022-11-22T23:32:55.198Z,8.82
2022-11-22T23:38:23.633Z,8.40
2022-11-22T23:43:54.276Z,7.90
2022-11-22T23:49:20.001Z,9.73
